Startpagina
METAR-TAF:

METAR-TAF

Vliegvelden :

Châteaudun, Frankrijk

breedte: 48-03N, lengte: 001-23E, hoogte: 134 m

Actueel weer

Dit bericht is 17 minuten geleden gemaakt, om 05:00 UTC
Wind 5 kt uit het noorden
Temperatuur 13°C
Vochtigheid 88%
Druk 1017 hPa
Zicht 10 km of meer
geen wolken onder 1500 m en geen cumulonimbus

METAR: LFOC 020500Z AUTO 35005KT CAVOK 13/11 Q1017 NOSIG

Tijdstip: 07:17 (05:17 UTC)

Verwachting

Dit bericht is 47 minuten geleden gemaakt, om 04:30 UTC
Verwachting geldig van 02 om 04 UTC tot 03 om 03 UTC
Wind 6 kt uit het noorden
Zicht 10 km of meer
geen wolken onder 1500 m en geen cumulonimbus

TAF: LFOC 020430Z 0204/0303 35006KT CAVOK

Waarnemingen en weersverwachtingen van meer dan 4000 vliegvelden (METAR en TAF).

De beschikbare stations zijn de gele en rode punten op de kaart.

Ga met uw muis naar het station om de naam te zien.

Klik dan om waarnemingen en weersverwachtingen te zien.

kaart wijzigen: klik op de groene knoppen met een zwart kruis om in te zoomen, op de groene knop met een streepje om uit te zoomen of op de groene pijlen voor aangrenzende kaarten.


METAR-TAF: